Terminal Aerodrome Forecast
Issued by NWS Pocatello, ID

Home | Current Version | Previous Version | Text Only | Print | Product List | Glossary On
Versions: 1 2 3 4 5 6 7 8 9 10 11 12 13 14 15 16 17 18 19 20 21 22 23 24 25 26 27 28 29 30
000
FTUS45 KPIH 180900 AAB
TAFIDA
TAF AMD
KIDA 180901Z 1809/1906 VRB03KT 6SM BR FEW002 SCT025
      TEMPO 1809/1813 3SM BR
     FM182000 23008KT P6SM SCT008 BKN040 OVC100=

USA.gov is the U.S. government's official web portal to all federal, state and local government web resources and services.